Time;durP1;ratioP1;P1;durP2;ratioP2;P2;SDS_P1;SDS_P2;PMS_P1;PMS_P2;Temp;Humidity;BMP_temperature;BMP_pressure;BME280_temperature;BME280_humidity;BME280_pressure;Samples;Min_cycle;Max_cycle;Signal;HPM_P1;HPM_P2
2021/06/26 00:01:37;;;;;;;8.13;6.70;;;20.00;99.90;;;;;;4449709;32;20150;-68
2021/06/26 00:04:06;;;;;;;11.30;7.10;;;20.00;99.90;;;;;;4441782;32;20180;-68
2021/06/26 00:06:36;;;;;;;9.40;6.70;;;19.90;99.90;;;;;;4453750;32;20227;-69
2021/06/26 00:09:03;;;;;;;8.80;6.77;;;19.80;99.90;;;;;;4455092;32;20265;-68
2021/06/26 00:11:30;;;;;;;9.33;6.63;;;19.80;99.90;;;;;;4452071;32;20206;-69
2021/06/26 00:13:58;;;;;;;7.43;5.90;;;19.80;99.90;;;;;;4441719;32;20143;-68
2021/06/26 00:16:25;;;;;;;9.00;7.00;;;19.80;99.90;;;;;;4441745;32;20146;-68
2021/06/26 00:18:52;;;;;;;8.13;6.70;;;19.70;99.90;;;;;;4441467;32;20491;-68
2021/06/26 00:21:19;;;;;;;10.50;7.00;;;19.60;99.90;;;;;;4439383;32;20146;-68
2021/06/26 00:23:45;;;;;;;9.90;6.77;;;19.60;99.90;;;;;;4441418;32;20161;-68
2021/06/26 00:26:16;;;;;;;10.23;7.27;;;19.50;99.90;;;;;;4439935;32;20150;-68
2021/06/26 00:28:44;;;;;;;7.37;6.40;;;19.50;99.90;;;;;;4439924;32;20210;-68
2021/06/26 00:31:11;;;;;;;9.80;6.40;;;19.60;99.90;;;;;;4439831;32;20135;-68
2021/06/26 00:33:38;;;;;;;8.60;6.50;;;19.60;99.90;;;;;;4440090;32;20135;-68
2021/06/26 00:36:06;;;;;;;9.03;6.70;;;19.70;99.90;;;;;;4441073;32;20174;-68
2021/06/26 00:38:33;;;;;;;10.53;6.83;;;19.70;99.90;;;;;;4440826;32;20178;-67
2021/06/26 00:41:00;;;;;;;9.37;6.40;;;19.80;99.90;;;;;;4439447;32;20138;-68
2021/06/26 00:43:27;;;;;;;7.60;6.30;;;19.80;99.90;;;;;;4440718;32;20250;-68
2021/06/26 00:45:58;;;;;;;10.73;6.80;;;19.90;99.90;;;;;;4440980;32;20131;-68
2021/06/26 00:48:25;;;;;;;9.67;6.47;;;19.90;99.90;;;;;;4441222;32;20142;-68
2021/06/26 00:50:52;;;;;;;11.73;6.93;;;19.90;99.90;;;;;;4439028;32;20181;-68
2021/06/26 00:53:19;;;;;;;8.73;7.00;;;19.90;99.90;;;;;;4441020;32;20533;-68
2021/06/26 00:55:52;;;;;;;9.27;6.60;;;19.90;99.90;;;;;;4439458;32;20468;-68
2021/06/26 00:58:23;;;;;;;9.33;6.67;;;19.90;99.90;;;;;;4441030;32;20142;-68
2021/06/26 01:00:52;;;;;;;9.73;6.97;;;19.90;99.90;;;;;;4439343;32;20232;-68
2021/06/26 01:03:19;;;;;;;8.77;6.57;;;20.00;99.90;;;;;;4440935;32;20146;-68
2021/06/26 01:05:47;;;;;;;7.17;6.33;;;20.00;99.90;;;;;;4440212;32;20532;-68
2021/06/26 01:08:14;;;;;;;7.80;6.30;;;20.10;99.90;;;;;;4439446;32;20139;-68
2021/06/26 01:10:41;;;;;;;8.87;6.20;;;20.10;99.90;;;;;;4439220;32;20150;-68
2021/06/26 01:13:07;;;;;;;7.17;6.00;;;20.10;99.90;;;;;;4441162;32;20196;-68
2021/06/26 01:15:35;;;;;;;7.55;5.90;;;20.20;99.90;;;;;;4439426;32;20151;-68
2021/06/26 01:18:02;;;;;;;10.87;6.30;;;20.20;99.90;;;;;;4440673;32;20454;-68
2021/06/26 01:20:29;;;;;;;8.10;6.30;;;20.20;99.90;;;;;;4439163;32;20203;-69
2021/06/26 01:23:00;;;;;;;8.07;6.23;;;20.20;99.90;;;;;;4439193;32;20405;-69
2021/06/26 01:25:29;;;;;;;8.27;5.97;;;20.10;99.90;;;;;;4440509;32;20188;-69
2021/06/26 01:27:58;;;;;;;6.93;5.73;;;20.20;99.90;;;;;;4440584;32;20188;-69
2021/06/26 01:30:30;;;;;;;6.87;5.53;;;20.10;99.90;;;;;;4439134;32;20139;-68
2021/06/26 01:32:58;;;;;;;7.70;5.90;;;20.20;99.90;;;;;;4440237;32;20147;-69
2021/06/26 01:35:26;;;;;;;5.90;4.97;;;20.10;99.90;;;;;;4438794;32;20201;-69
2021/06/26 01:37:54;;;;;;;6.07;4.90;;;20.10;99.90;;;;;;4438740;32;20178;-69
2021/06/26 01:40:23;;;;;;;6.03;4.87;;;20.10;99.90;;;;;;4438825;32;20162;-69
2021/06/26 01:42:51;;;;;;;6.30;4.73;;;20.10;99.90;;;;;;4440397;32;20130;-69
2021/06/26 01:45:20;;;;;;;5.03;4.50;;;20.10;99.90;;;;;;4438685;32;20213;-68
2021/06/26 01:47:57;;;;;;;5.17;4.50;;;20.00;99.90;;;;;;4440432;32;20135;-68
2021/06/26 01:50:27;;;;;;;5.63;4.37;;;20.00;99.90;;;;;;4440301;32;20201;-68
2021/06/26 01:52:54;;;;;;;5.60;4.30;;;20.00;99.90;;;;;;4440507;32;20142;-68
2021/06/26 01:55:23;;;;;;;5.33;4.00;;;20.00;99.90;;;;;;4438806;32;20142;-68
2021/06/26 01:57:51;;;;;;;5.57;3.97;;;19.90;99.90;;;;;;4438596;32;20235;-68
2021/06/26 02:00:20;;;;;;;5.10;3.77;;;19.90;99.90;;;;;;4438932;32;20134;-69
2021/06/26 02:02:47;;;;;;;4.63;3.50;;;19.90;99.90;;;;;;4440301;32;20451;-68
2021/06/26 02:05:17;;;;;;;4.33;3.70;;;19.90;99.90;;;;;;4440184;32;20451;-68
2021/06/26 02:07:45;;;;;;;5.30;3.33;;;19.80;99.90;;;;;;4438703;32;20134;-68
2021/06/26 02:10:13;;;;;;;4.63;3.57;;;19.80;99.90;;;;;;4438400;32;20138;-68
2021/06/26 02:12:41;;;;;;;3.47;3.10;;;19.80;99.90;;;;;;4439265;32;20472;-69
2021/06/26 02:15:09;;;;;;;4.23;3.47;;;19.80;99.90;;;;;;4440209;32;20160;-68
2021/06/26 02:17:36;;;;;;;3.60;3.03;;;19.80;99.90;;;;;;4438600;32;20411;-68
2021/06/26 02:20:07;;;;;;;3.73;3.10;;;19.70;99.90;;;;;;4438666;32;20237;-68
2021/06/26 02:22:34;;;;;;;3.40;3.10;;;19.70;99.90;;;;;;4440205;32;20172;-69
2021/06/26 02:25:05;;;;;;;5.07;3.13;;;19.70;99.90;;;;;;4438638;32;20353;-69
2021/06/26 02:27:33;;;;;;;4.40;3.30;;;19.60;99.90;;;;;;4439715;32;20166;-69
2021/06/26 02:30:00;;;;;;;4.33;3.40;;;19.60;99.90;;;;;;4438566;32;20196;-69
2021/06/26 02:32:27;;;;;;;3.90;3.40;;;19.70;99.90;;;;;;4438659;32;20244;-69
2021/06/26 02:34:54;;;;;;;3.73;3.17;;;19.70;99.90;;;;;;4438581;32;20191;-69
2021/06/26 02:37:21;;;;;;;3.83;3.23;;;19.70;99.90;;;;;;4438669;32;20142;-69
2021/06/26 02:39:48;;;;;;;4.13;3.40;;;19.60;99.90;;;;;;4439998;32;20143;-69
2021/06/26 02:42:15;;;;;;;4.40;3.60;;;19.50;99.90;;;;;;4438620;32;20138;-69
2021/06/26 02:44:42;;;;;;;3.77;3.20;;;19.50;99.90;;;;;;4438138;32;20181;-69
2021/06/26 02:47:09;;;;;;;4.20;3.67;;;19.50;99.90;;;;;;4437920;32;20191;-69
2021/06/26 02:49:36;;;;;;;4.90;3.87;;;19.40;99.90;;;;;;4439926;32;20135;-69
2021/06/26 02:52:05;;;;;;;4.67;3.80;;;19.40;99.90;;;;;;4438753;32;20241;-69
2021/06/26 02:54:33;;;;;;;4.93;3.63;;;19.50;99.90;;;;;;4439612;32;20166;-69
2021/06/26 02:57:00;;;;;;;4.63;3.67;;;19.40;99.90;;;;;;4437285;32;20186;-69
2021/06/26 02:59:27;;;;;;;5.07;3.83;;;19.40;99.90;;;;;;4439835;32;20154;-69
2021/06/26 03:01:54;;;;;;;4.23;3.70;;;19.40;99.90;;;;;;4438387;32;20479;-69
2021/06/26 03:04:21;;;;;;;4.43;3.60;;;19.40;99.90;;;;;;4439751;32;20155;-68
2021/06/26 03:06:47;;;;;;;3.77;3.43;;;19.40;99.90;;;;;;4438158;32;20188;-68
2021/06/26 03:09:14;;;;;;;5.80;4.00;;;19.40;99.90;;;;;;4439850;32;20396;-68
2021/06/26 03:11:41;;;;;;;4.73;3.67;;;19.30;99.90;;;;;;4442463;32;20138;-68
2021/06/26 03:14:08;;;;;;;5.77;3.73;;;19.30;99.90;;;;;;4442492;32;20134;-68
2021/06/26 03:16:35;;;;;;;4.17;3.77;;;19.30;99.90;;;;;;4440876;32;20177;-68
2021/06/26 03:19:03;;;;;;;4.20;3.77;;;19.30;99.90;;;;;;4440879;32;20401;-68
2021/06/26 03:21:30;;;;;;;5.33;4.10;;;19.20;99.90;;;;;;4442384;32;20409;-68
2021/06/26 03:23:57;;;;;;;4.97;3.90;;;19.20;99.90;;;;;;4441520;32;20183;-68
2021/06/26 03:26:24;;;;;;;4.60;3.90;;;19.20;99.90;;;;;;4441065;32;20238;-69
2021/06/26 03:28:51;;;;;;;4.40;3.40;;;19.10;99.90;;;;;;4440807;32;20269;-68
2021/06/26 03:31:17;;;;;;;4.37;3.67;;;19.10;99.90;;;;;;4440726;32;20173;-68
2021/06/26 03:33:46;;;;;;;3.90;3.50;;;19.30;99.90;;;;;;4442258;32;20135;-69
2021/06/26 03:36:14;;;;;;;5.47;3.67;;;19.20;99.90;;;;;;4440721;32;20250;-69
2021/06/26 03:38:41;;;;;;;3.87;3.50;;;19.30;99.90;;;;;;4440718;32;20138;-69
2021/06/26 03:41:08;;;;;;;5.30;3.70;;;19.20;99.90;;;;;;4440749;32;20162;-69
2021/06/26 03:43:35;;;;;;;5.77;3.90;;;19.20;99.90;;;;;;4441598;32;20155;-68
2021/06/26 03:46:02;;;;;;;4.40;3.60;;;19.20;99.90;;;;;;4440431;32;20475;-69
2021/06/26 03:48:29;;;;;;;4.43;3.70;;;19.20;99.90;;;;;;4441628;32;20188;-69
2021/06/26 03:50:58;;;;;;;6.03;3.97;;;19.30;99.90;;;;;;4441306;32;20357;-69
2021/06/26 03:53:26;;;;;;;5.20;4.13;;;19.30;99.90;;;;;;4440449;32;20154;-69
2021/06/26 03:55:53;;;;;;;4.73;3.80;;;19.40;99.90;;;;;;4441218;32;20174;-69
2021/06/26 03:58:25;;;;;;;6.13;3.47;;;19.40;99.90;;;;;;4441847;32;20294;-69
2021/06/26 04:00:52;;;;;;;5.27;3.97;;;19.40;99.90;;;;;;4441890;32;20452;-69
2021/06/26 04:03:19;;;;;;;5.80;4.40;;;19.50;99.90;;;;;;4440196;32;20143;-69
2021/06/26 04:05:46;;;;;;;5.10;4.07;;;19.40;99.90;;;;;;4441716;32;20381;-69
2021/06/26 04:08:14;;;;;;;5.93;4.37;;;19.50;99.90;;;;;;4440428;32;20150;-69
2021/06/26 04:10:42;;;;;;;5.43;4.70;;;19.50;99.90;;;;;;4452638;32;20487;-69
2021/06/26 04:13:09;;;;;;;5.80;4.43;;;19.50;99.90;;;;;;4456112;32;20188;-69
2021/06/26 04:15:36;;;;;;;5.20;4.60;;;19.40;99.90;;;;;;4449643;32;20154;-69
2021/06/26 04:18:04;;;;;;;5.30;4.40;;;19.40;99.90;;;;;;4440239;32;20250;-69
2021/06/26 04:20:31;;;;;;;5.63;4.40;;;19.60;99.90;;;;;;4444639;32;20154;-69
2021/06/26 04:22:58;;;;;;;5.03;4.40;;;19.50;99.90;;;;;;4443259;32;20428;-69
2021/06/26 04:25:26;;;;;;;5.07;4.33;;;19.50;99.90;;;;;;4440829;32;20169;-68
2021/06/26 04:27:54;;;;;;;7.30;4.30;;;19.60;99.90;;;;;;4439904;32;20135;-68
2021/06/26 04:30:21;;;;;;;6.53;4.50;;;19.50;99.90;;;;;;4441389;32;20158;-68
2021/06/26 04:32:48;;;;;;;5.43;4.30;;;19.50;99.90;;;;;;4439232;32;20143;-69
2021/06/26 04:35:19;;;;;;;5.83;4.20;;;19.60;99.90;;;;;;4441168;32;20383;-68
2021/06/26 04:37:47;;;;;;;5.93;4.40;;;19.70;99.90;;;;;;4440764;32;20412;-69
2021/06/26 04:40:15;;;;;;;6.73;4.70;;;19.80;99.90;;;;;;4440019;32;20215;-69
2021/06/26 04:42:42;;;;;;;6.23;4.50;;;19.90;99.90;;;;;;4441235;32;20147;-69
2021/06/26 04:45:09;;;;;;;4.93;3.83;;;19.90;99.90;;;;;;4439544;32;20173;-69
2021/06/26 04:47:36;;;;;;;7.67;4.50;;;20.10;99.90;;;;;;4439793;32;20344;-69
2021/06/26 04:50:03;;;;;;;6.07;4.00;;;20.20;99.90;;;;;;4441048;32;20142;-69
2021/06/26 04:52:30;;;;;;;6.53;4.10;;;20.30;99.90;;;;;;4439545;32;20187;-69
2021/06/26 04:54:57;;;;;;;7.27;4.37;;;20.30;99.90;;;;;;4439649;32;20139;-68
2021/06/26 04:57:24;;;;;;;7.10;4.23;;;20.30;99.90;;;;;;4439640;32;20237;-69
2021/06/26 04:59:51;;;;;;;5.93;4.50;;;20.40;99.90;;;;;;4441033;32;20213;-69
2021/06/26 05:02:18;;;;;;;4.77;3.97;;;20.40;99.90;;;;;;4439937;32;20202;-69
2021/06/26 05:04:45;;;;;;;6.03;4.17;;;20.50;99.90;;;;;;4439424;32;20158;-69
2021/06/26 05:07:12;;;;;;;5.67;4.00;;;20.50;99.90;;;;;;4439736;32;20453;-69
2021/06/26 05:09:39;;;;;;;6.10;4.10;;;20.50;99.90;;;;;;4439129;32;20142;-69
2021/06/26 05:12:07;;;;;;;5.10;4.07;;;20.60;99.90;;;;;;4439051;32;20138;-69
2021/06/26 05:14:34;;;;;;;5.47;4.30;;;20.80;99.90;;;;;;4440578;32;20178;-69
2021/06/26 05:17:00;;;;;;;5.73;4.17;;;20.80;99.90;;;;;;4439392;32;20209;-69
2021/06/26 05:19:28;;;;;;;9.27;4.90;;;21.00;99.90;;;;;;4440731;32;20142;-69
2021/06/26 05:21:54;;;;;;;6.10;4.40;;;21.10;99.90;;;;;;4439166;32;20452;-68
2021/06/26 05:24:21;;;;;;;6.53;4.23;;;21.20;99.90;;;;;;4440615;32;20523;-69
2021/06/26 05:26:48;;;;;;;5.43;4.20;;;21.30;99.90;;;;;;4439167;32;20444;-69
2021/06/26 05:29:15;;;;;;;7.63;4.43;;;21.40;99.90;;;;;;4439133;32;20142;-69
2021/06/26 05:31:42;;;;;;;5.30;3.90;;;21.60;99.90;;;;;;4440047;32;20177;-69
2021/06/26 05:34:09;;;;;;;4.73;3.80;;;21.70;99.90;;;;;;4439020;32;20139;-69
2021/06/26 05:36:36;;;;;;;6.07;4.17;;;21.80;99.90;;;;;;4438918;32;20169;-69
2021/06/26 05:39:04;;;;;;;5.80;4.00;;;21.80;99.90;;;;;;4440418;32;20201;-69
2021/06/26 05:41:31;;;;;;;7.77;4.10;;;21.70;99.90;;;;;;4440358;32;20164;-69
2021/06/26 05:43:57;;;;;;;6.97;4.37;;;21.60;99.90;;;;;;4438784;32;20331;-69
2021/06/26 05:46:24;;;;;;;5.30;4.13;;;21.70;99.90;;;;;;4440375;32;20568;-69
2021/06/26 05:48:51;;;;;;;6.23;4.20;;;21.70;99.90;;;;;;4438912;32;20399;-69
2021/06/26 05:51:20;;;;;;;7.00;4.63;;;21.80;99.90;;;;;;4439052;32;20172;-69
2021/06/26 05:53:46;;;;;;;10.07;5.00;;;21.90;99.90;;;;;;4438039;32;20194;-69
2021/06/26 05:56:13;;;;;;;21.80;5.70;;;21.80;99.90;;;;;;4439756;32;20151;-69
2021/06/26 05:58:40;;;;;;;9.63;4.80;;;21.80;99.90;;;;;;4440253;32;20158;-69
2021/06/26 06:01:10;;;;;;;10.73;4.63;;;22.00;99.90;;;;;;4440120;32;20188;-69
2021/06/26 06:03:42;;;;;;;11.57;4.67;;;22.10;99.90;;;;;;4440177;32;20153;-69
2021/06/26 06:06:09;;;;;;;26.27;5.90;;;22.10;99.90;;;;;;4440188;32;20143;-68
2021/06/26 06:08:36;;;;;;;6.53;4.63;;;22.00;99.90;;;;;;4440356;32;20142;-69
2021/06/26 06:11:02;;;;;;;16.97;5.27;;;21.90;99.90;;;;;;4438800;32;20201;-69
2021/06/26 06:13:30;;;;;;;8.77;5.00;;;21.90;99.90;;;;;;4438744;32;20433;-69
2021/06/26 06:15:56;;;;;;;8.63;5.00;;;22.00;99.90;;;;;;4438821;32;20537;-69
2021/06/26 06:18:23;;;;;;;5.97;4.30;;;21.90;99.90;;;;;;4440288;32;20150;-69
2021/06/26 06:20:50;;;;;;;10.63;5.00;;;21.90;99.90;;;;;;4438784;32;20159;-69
2021/06/26 06:23:17;;;;;;;10.33;5.03;;;21.80;99.90;;;;;;4438758;32;20176;-70
2021/06/26 06:25:44;;;;;;;11.60;5.00;;;21.60;99.90;;;;;;4438503;32;20204;-69
2021/06/26 06:28:11;;;;;;;18.97;5.27;;;21.70;99.90;;;;;;4439926;32;20146;-69
2021/06/26 06:30:38;;;;;;;6.47;4.70;;;21.70;99.90;;;;;;4439913;32;20233;-69
2021/06/26 06:33:06;;;;;;;10.20;5.00;;;21.60;99.90;;;;;;4439602;32;20138;-70
2021/06/26 06:35:33;;;;;;;25.13;5.53;;;21.60;99.90;;;;;;4438492;32;20226;-69
2021/06/26 06:38:02;;;;;;;26.03;5.73;;;21.40;99.90;;;;;;4439831;32;20349;-69
2021/06/26 06:40:29;;;;;;;12.13;4.93;;;21.30;99.90;;;;;;4438539;32;20460;-69
2021/06/26 06:42:56;;;;;;;12.23;4.63;;;21.50;99.90;;;;;;4439402;32;20139;-69
2021/06/26 06:45:24;;;;;;;12.87;4.70;;;21.50;99.90;;;;;;4441135;32;20207;-69
2021/06/26 06:47:51;;;;;;;9.07;4.87;;;21.60;99.90;;;;;;4442524;32;20213;-69
2021/06/26 06:50:18;;;;;;;9.80;4.70;;;21.60;99.90;;;;;;4442975;32;20191;-69
2021/06/26 06:52:45;;;;;;;10.37;5.07;;;21.60;99.90;;;;;;4442387;32;20233;-69
2021/06/26 06:55:12;;;;;;;9.43;4.60;;;21.50;99.90;;;;;;4442884;32;20341;-69
2021/06/26 06:57:39;;;;;;;7.97;4.40;;;21.60;99.90;;;;;;4442841;32;20198;-69
2021/06/26 07:00:12;;;;;;;54.47;7.27;;;21.50;99.90;;;;;;4441292;32;20134;-69
2021/06/26 07:02:39;;;;;;;124.23;11.07;;;21.70;99.90;;;;;;4442761;32;20150;-69
2021/06/26 07:05:08;;;;;;;12.83;4.83;;;21.80;99.90;;;;;;4446823;32;20209;-69
2021/06/26 07:07:35;;;;;;;7.57;4.80;;;21.90;99.90;;;;;;4455910;32;20149;-70
2021/06/26 07:10:03;;;;;;;16.30;5.33;;;22.00;99.90;;;;;;4440823;32;20487;-69
2021/06/26 07:12:30;;;;;;;17.50;5.87;;;22.10;99.90;;;;;;4440798;32;20154;-68
2021/06/26 07:14:57;;;;;;;7.97;4.60;;;22.10;99.90;;;;;;4441611;32;20139;-70
2021/06/26 07:17:24;;;;;;;27.47;6.17;;;22.30;99.90;;;;;;4441093;32;20578;-71
2021/06/26 07:19:51;;;;;;;28.57;6.50;;;22.40;99.90;;;;;;4442521;32;20142;-70
2021/06/26 07:22:18;;;;;;;11.70;4.93;;;22.50;99.90;;;;;;4455520;32;20464;-69
2021/06/26 07:24:45;;;;;;;8.83;4.80;;;22.60;99.90;;;;;;4457674;32;20138;-69
2021/06/26 07:27:12;;;;;;;29.80;6.00;;;22.60;99.90;;;;;;4457688;32;20203;-69
2021/06/26 07:29:39;;;;;;;11.97;5.00;;;22.70;99.90;;;;;;4457612;32;20169;-69
2021/06/26 07:32:06;;;;;;;10.37;4.43;;;22.70;99.90;;;;;;4456085;32;20203;-69
2021/06/26 07:34:33;;;;;;;7.17;4.47;;;22.80;99.90;;;;;;4457411;32;20401;-70
2021/06/26 07:37:00;;;;;;;8.53;5.20;;;22.90;99.90;;;;;;4456041;32;20161;-69
2021/06/26 07:39:27;;;;;;;9.13;5.00;;;22.80;99.90;;;;;;4455576;32;20143;-69
2021/06/26 07:41:54;;;;;;;7.37;4.63;;;22.80;99.90;;;;;;4457342;32;20200;-70
2021/06/26 07:44:22;;;;;;;7.62;4.60;;;22.80;99.90;;;;;;4455614;32;20225;-69
2021/06/26 07:46:49;;;;;;;7.87;4.85;;;22.70;99.90;;;;;;4455993;32;20178;-68
2021/06/26 07:49:16;;;;;;;8.83;4.43;;;22.60;99.90;;;;;;4455892;32;20187;-69
2021/06/26 07:51:43;;;;;;;8.02;4.47;;;22.20;99.90;;;;;;4456407;32;20138;-68
2021/06/26 07:54:10;;;;;;;12.47;4.90;;;22.40;99.90;;;;;;4455407;32;20187;-68
2021/06/26 07:56:37;;;;;;;9.02;4.60;;;22.70;99.90;;;;;;4455656;32;20137;-69
2021/06/26 07:59:04;;;;;;;7.00;4.50;;;22.60;99.90;;;;;;4455584;32;20237;-68
2021/06/26 08:01:31;;;;;;;8.00;4.72;;;22.70;99.90;;;;;;4457393;32;20165;-69
2021/06/26 08:03:58;;;;;;;6.50;4.77;;;22.80;99.90;;;;;;4457230;32;20142;-68
2021/06/26 08:06:25;;;;;;;17.57;5.27;;;23.10;99.90;;;;;;4455480;32;20160;-69
2021/06/26 08:08:52;;;;;;;23.95;5.95;;;23.40;99.90;;;;;;4456592;32;20199;-69
2021/06/26 08:11:20;;;;;;;6.95;4.70;;;23.70;99.90;;;;;;4457085;32;20271;-69
2021/06/26 08:13:48;;;;;;;18.67;5.60;;;23.80;99.90;;;;;;4457042;32;20130;-69
2021/06/26 08:16:16;;;;;;;28.67;5.57;;;24.00;99.90;;;;;;4455489;32;20207;-69
2021/06/26 08:18:43;;;;;;;8.18;5.10;;;24.10;99.90;;;;;;4455167;32;20157;-69
2021/06/26 08:21:10;;;;;;;10.95;5.15;;;24.40;99.90;;;;;;4455531;32;20226;-69
2021/06/26 08:23:37;;;;;;;8.13;4.35;;;24.60;99.90;;;;;;4455316;32;20154;-69
2021/06/26 08:26:04;;;;;;;14.65;5.07;;;24.80;99.90;;;;;;4456472;32;20138;-69
2021/06/26 08:28:31;;;;;;;5.45;3.85;;;25.20;99.90;;;;;;4455001;32;20150;-69
2021/06/26 08:51:54;;;;;;;23.42;5.55;;;26.80;99.90;;;;;;4452334;32;20584;-70
2021/06/26 08:54:21;;;;;;;9.60;4.90;;;26.80;99.90;;;;;;4436391;32;20154;-70
2021/06/26 08:56:50;;;;;;;6.68;4.20;;;27.00;99.50;;;;;;4437837;32;20540;-70
2021/06/26 08:59:17;;;;;;;5.82;4.60;;;27.30;98.80;;;;;;4436567;32;20207;-69
2021/06/26 09:01:45;;;;;;;10.52;5.00;;;27.10;99.20;;;;;;4437969;32;20471;-68
2021/06/26 09:04:18;;;;;;;12.90;4.57;;;26.80;98.40;;;;;;4436276;32;20138;-69
2021/06/26 09:06:50;;;;;;;73.28;9.63;;;27.30;99.90;;;;;;4435988;32;20189;-68
2021/06/26 09:09:28;;;;;;;38.17;7.00;;;27.50;99.90;;;;;;4435316;32;20196;-69
2021/06/26 09:12:06;;;;;;;42.80;6.47;;;27.70;99.90;;;;;;4437679;32;20191;-69
2021/06/26 09:14:34;;;;;;;20.62;4.30;;;27.80;98.60;;;;;;4437275;32;20199;-69
2021/06/26 09:17:02;;;;;;;8.57;3.50;;;27.80;94.90;;;;;;4437561;32;20139;-69
2021/06/26 09:19:30;;;;;;;7.70;3.40;;;27.90;93.80;;;;;;4437464;32;20147;-69
2021/06/26 09:22:01;;;;;;;10.23;3.75;;;28.10;93.40;;;;;;4436473;32;20147;-69
2021/06/26 09:24:42;;;;;;;38.33;5.03;;;28.40;92.50;;;;;;4437376;32;20199;-70
2021/06/26 09:27:11;;;;;;;6.93;2.95;;;28.10;92.80;;;;;;4437501;32;20176;-69
2021/06/26 09:29:49;;;;;;;6.18;2.42;;;28.00;86.40;;;;;;4437423;32;20417;-69
2021/06/26 09:32:22;;;;;;;2.65;2.37;;;27.90;82.30;;;;;;4437464;32;20181;-68
2021/06/26 09:34:50;;;;;;;6.10;2.78;;;28.40;82.70;;;;;;4435990;32;20185;-69
2021/06/26 09:37:33;;;;;;;5.18;2.75;;;28.50;80.50;;;;;;4431131;32;20151;-70
2021/06/26 09:40:02;;;;;;;3.60;2.80;;;28.80;79.20;;;;;;4429848;32;20193;-70
2021/06/26 09:42:32;;;;;;;2.97;2.67;;;29.10;78.70;;;;;;4420622;32;20143;-69
2021/06/26 09:45:09;;;;;;;4.50;2.90;;;29.10;76.80;;;;;;4420298;32;20143;-70
2021/06/26 09:47:39;;;;;;;4.32;2.67;;;29.20;77.30;;;;;;4420497;32;20178;-70
2021/06/26 09:50:19;;;;;;;4.90;2.40;;;29.20;72.30;;;;;;4422873;32;20155;-70
2021/06/26 09:52:58;;;;;;;5.30;2.53;;;28.90;73.20;;;;;;4426096;32;20178;-70
2021/06/26 09:55:33;;;;;;;5.05;2.35;;;29.10;75.40;;;;;;4427095;32;20431;-69
2021/06/26 09:58:06;;;;;;;4.32;2.33;;;29.60;74.20;;;;;;4419229;32;20522;-71
2021/06/26 10:00:33;;;;;;;3.78;2.30;;;29.80;70.50;;;;;;4434516;32;20488;-71
2021/06/26 10:03:00;;;;;;;14.82;3.20;;;29.80;69.10;;;;;;4437939;32;20423;-70
2021/06/26 10:05:29;;;;;;;5.85;2.85;;;29.60;75.60;;;;;;4437745;32;20150;-69
2021/06/26 10:07:59;;;;;;;2.75;2.30;;;29.40;74.00;;;;;;4441563;32;20181;-70
2021/06/26 10:10:27;;;;;;;5.60;2.40;;;29.70;69.40;;;;;;4440460;32;20219;-69
2021/06/26 10:12:55;;;;;;;4.40;2.70;;;29.60;72.60;;;;;;4435815;32;20142;-70
2021/06/26 10:15:26;;;;;;;3.40;2.47;;;29.50;71.40;;;;;;4429937;32;20154;-69
2021/06/26 10:17:53;;;;;;;6.32;2.87;;;28.90;68.50;;;;;;4440549;32;20150;-70
2021/06/26 10:20:22;;;;;;;7.85;3.45;;;28.70;73.60;;;;;;4440317;32;20182;-69
2021/06/26 10:23:00;;;;;;;3.78;2.60;;;28.80;75.40;;;;;;4429835;32;20472;-69
2021/06/26 10:25:30;;;;;;;12.35;3.40;;;28.70;71.50;;;;;;4424161;32;20533;-70
2021/06/26 10:28:13;;;;;;;8.43;3.37;;;28.60;75.60;;;;;;4426523;32;20202;-69
2021/06/26 10:30:40;;;;;;;9.13;3.67;;;28.50;73.10;;;;;;4426275;32;20174;-69
2021/06/26 10:33:10;;;;;;;7.22;3.20;;;28.60;73.20;;;;;;4424826;32;20159;-69
2021/06/26 10:35:39;;;;;;;8.80;3.08;;;29.20;75.00;;;;;;4424934;32;20180;-70
2021/06/26 10:38:12;;;;;;;7.90;3.22;;;29.60;73.40;;;;;;4427659;32;20220;-70
2021/06/26 10:40:40;;;;;;;4.90;3.25;;;30.00;69.70;;;;;;4432522;32;20181;-70
2021/06/26 10:43:30;;;;;;;3.70;2.87;;;30.10;73.40;;;;;;4433567;32;20183;-69
2021/06/26 10:46:09;;;;;;;4.85;3.08;;;29.40;69.60;;;;;;4428072;32;20430;-70
2021/06/26 10:48:38;;;;;;;5.37;3.30;;;28.60;74.20;;;;;;4428480;32;20170;-65
2021/06/26 10:51:10;;;;;;;4.15;3.20;;;28.70;72.90;;;;;;4421263;32;20214;-64
2021/06/26 10:53:40;;;;;;;4.55;3.33;;;27.80;73.50;;;;;;4422487;32;20249;-64
2021/06/26 10:56:15;;;;;;;6.43;3.40;;;27.90;75.80;;;;;;4424532;32;20239;-64
2021/06/26 10:58:44;;;;;;;4.87;3.37;;;28.10;76.90;;;;;;4437926;32;20509;-64
2021/06/26 11:01:15;;;;;;;5.53;3.42;;;28.40;79.50;;;;;;4438720;32;20151;-65
2021/06/26 11:03:44;;;;;;;3.70;3.20;;;28.30;75.80;;;;;;4440520;32;20173;-64
2021/06/26 11:06:26;;;;;;;4.12;3.42;;;28.40;76.80;;;;;;4441252;32;20142;-64
2021/06/26 11:09:03;;;;;;;4.07;3.30;;;28.40;77.80;;;;;;4441697;32;20158;-64
2021/06/26 11:11:44;;;;;;;4.07;3.37;;;28.20;77.30;;;;;;4441109;32;20527;-65
2021/06/26 11:14:24;;;;;;;4.53;3.65;;;28.40;78.20;;;;;;4441087;32;20187;-65
2021/06/26 11:16:54;;;;;;;5.25;3.80;;;28.30;77.10;;;;;;4441182;32;20165;-64
2021/06/26 11:19:22;;;;;;;4.30;3.22;;;28.50;76.40;;;;;;4441116;32;20410;-64
2021/06/26 11:21:52;;;;;;;4.28;3.47;;;29.00;78.20;;;;;;4440602;32;20199;-63
2021/06/26 11:24:44;;;;;;;4.62;3.70;;;29.70;75.30;;;;;;4440848;32;20423;-64
2021/06/26 11:27:17;;;;;;;4.30;3.45;;;30.20;74.10;;;;;;4440445;32;20198;-64
2021/06/26 11:29:47;;;;;;;4.50;3.90;;;30.70;70.40;;;;;;4440795;32;20207;-64
2021/06/26 11:32:19;;;;;;;5.03;3.50;;;30.70;69.20;;;;;;4441028;32;20192;-64
2021/06/26 11:35:00;;;;;;;4.60;3.37;;;30.60;70.20;;;;;;4440850;32;20182;-64
2021/06/26 11:37:33;;;;;;;4.12;3.55;;;30.60;70.70;;;;;;4439469;32;20211;-64
2021/06/26 11:40:02;;;;;;;5.37;3.53;;;30.50;70.40;;;;;;4440807;32;20170;-64
2021/06/26 11:42:29;;;;;;;4.10;3.70;;;30.70;71.10;;;;;;4439252;32;20142;-64
2021/06/26 11:44:56;;;;;;;5.18;3.90;;;30.30;70.50;;;;;;4440044;32;20535;-64
2021/06/26 11:47:25;;;;;;;5.47;3.92;;;29.70;71.10;;;;;;4440700;32;20157;-64
2021/06/26 11:49:52;;;;;;;5.55;3.85;;;29.00;72.90;;;;;;4440336;32;20417;-64
2021/06/26 11:52:19;;;;;;;4.93;4.10;;;28.40;74.70;;;;;;4441008;32;20135;-64
2021/06/26 11:54:46;;;;;;;4.97;3.85;;;28.00;78.20;;;;;;4440656;32;20170;-64
2021/06/26 11:57:13;;;;;;;4.72;4.07;;;27.70;78.30;;;;;;4439022;32;20138;-64
2021/06/26 11:59:48;;;;;;;4.47;3.72;;;27.50;79.90;;;;;;4440807;32;20154;-64
2021/06/26 12:02:16;;;;;;;5.55;3.78;;;27.20;79.40;;;;;;4440699;32;20384;-64
2021/06/26 12:04:43;;;;;;;6.45;4.40;;;27.00;81.20;;;;;;4440673;32;20142;-63
2021/06/26 12:07:11;;;;;;;5.97;4.03;;;26.70;83.30;;;;;;4438995;32;20138;-63
2021/06/26 12:09:42;;;;;;;5.07;4.12;;;26.50;83.50;;;;;;4439760;32;20138;-63
2021/06/26 12:12:10;;;;;;;6.00;4.45;;;26.30;84.20;;;;;;4439498;32;20155;-64
2021/06/26 12:14:39;;;;;;;7.05;4.28;;;26.10;85.10;;;;;;4440195;32;20227;-64
2021/06/26 12:17:08;;;;;;;4.53;4.00;;;26.20;86.30;;;;;;4439975;32;20173;-64
2021/06/26 12:19:35;;;;;;;6.75;4.35;;;26.30;85.50;;;;;;4440455;32;20161;-63
2021/06/26 12:22:04;;;;;;;5.15;4.25;;;26.20;85.60;;;;;;4438715;32;20166;-64
2021/06/26 12:24:36;;;;;;;6.10;4.32;;;26.40;86.00;;;;;;4440234;32;20154;-64
2021/06/26 12:27:12;;;;;;;6.28;4.10;;;26.40;86.00;;;;;;4440599;32;20443;-64
2021/06/26 12:29:43;;;;;;;6.87;4.55;;;26.80;87.50;;;;;;4439875;32;20421;-64
2021/06/26 12:32:21;;;;;;;7.62;4.97;;;26.80;86.90;;;;;;4440612;32;20195;-64
2021/06/26 12:34:48;;;;;;;8.73;5.00;;;26.80;86.00;;;;;;4440494;32;20169;-63
2021/06/26 12:37:16;;;;;;;5.82;4.50;;;26.60;85.60;;;;;;4440564;32;20221;-63
2021/06/26 12:39:42;;;;;;;6.05;4.80;;;26.10;86.80;;;;;;4440486;32;20192;-63
2021/06/26 12:42:10;;;;;;;8.57;4.82;;;26.10;89.20;;;;;;4424777;32;20171;-64
2021/06/26 12:44:39;;;;;;;6.40;4.62;;;25.70;89.20;;;;;;4437875;32;20192;-63
2021/06/26 12:47:07;;;;;;;5.82;4.57;;;25.60;90.00;;;;;;4440254;32;20177;-64
2021/06/26 12:49:36;;;;;;;5.40;4.28;;;25.60;90.90;;;;;;4440293;32;20166;-63
2021/06/26 12:52:12;;;;;;;8.27;4.78;;;25.50;91.80;;;;;;4440127;32;20158;-63
2021/06/26 12:54:52;;;;;;;5.97;5.10;;;25.50;91.80;;;;;;4437656;32;20256;-63
2021/06/26 12:57:21;;;;;;;5.22;4.65;;;25.40;91.70;;;;;;4438397;32;20153;-63
2021/06/26 12:59:48;;;;;;;5.37;4.45;;;25.40;91.30;;;;;;4436280;32;20168;-64
2021/06/26 13:02:15;;;;;;;7.07;4.70;;;25.50;91.90;;;;;;4440427;32;20427;-63
2021/06/26 13:04:47;;;;;;;7.43;4.53;;;25.50;92.00;;;;;;4438902;32;20341;-63
2021/06/26 13:07:22;;;;;;;7.70;5.10;;;25.60;91.60;;;;;;4439660;32;20412;-63
2021/06/26 13:09:53;;;;;;;7.15;5.28;;;25.90;91.20;;;;;;4440161;32;20166;-63
2021/06/26 13:12:23;;;;;;;7.65;4.40;;;26.00;91.20;;;;;;4425105;32;20139;-63
2021/06/26 13:14:55;;;;;;;5.45;4.40;;;26.10;91.80;;;;;;4424884;32;20191;-64